Time;durP1;ratioP1;P1;durP2;ratioP2;P2;SDS_P1;SDS_P2;PMS_P1;PMS_P2;Temp;Humidity;BMP_temperature;BMP_pressure;BME280_temperature;BME280_humidity;BME280_pressure;Samples;Min_cycle;Max_cycle;Signal;HPM_P1;HPM_P2
2021/08/24 00:00:51;;;;;;;5.65;2.60;;;;;;;9.87;93.59;102510.03;4847980;29;20018;-84
2021/08/24 00:08:28;;;;;;;4.30;2.65;;;;;;;9.89;94.07;102515.25;5654472;24;20042;-84
2021/08/24 00:13:56;;;;;;;4.85;2.63;;;;;;;9.91;94.44;102528.56;5366463;24;20046;-85
2021/08/24 00:18:57;;;;;;;5.82;2.60;;;;;;;9.62;94.43;102494.63;5772212;23;20000;-84
2021/08/24 00:21:23;;;;;;;3.65;2.47;;;;;;;10.97;94.76;102701.81;4885628;29;20089;-85
2021/08/24 00:23:52;;;;;;;5.95;2.53;;;;;;;10.19;95.03;102591.19;4881373;29;20052;-85
2021/08/24 00:26:17;;;;;;;5.05;2.58;;;;;;;10.11;94.97;102582.03;4885767;29;20029;-84
2021/08/24 00:28:43;;;;;;;3.53;2.67;;;;;;;9.81;95.11;102542.91;4885675;29;20068;-84
2021/08/24 00:31:09;;;;;;;3.92;2.30;;;;;;;9.57;94.87;102499.59;4883902;29;20025;-84
2021/08/24 00:33:35;;;;;;;5.43;2.90;;;;;;;9.52;94.96;102515.34;4885076;29;20055;-84
2021/08/24 00:36:00;;;;;;;7.30;3.05;;;;;;;9.51;95.25;102501.06;4880168;29;20034;-84
2021/08/24 00:38:27;;;;;;;4.03;2.78;;;;;;;10.68;95.22;102697.50;4875897;29;20033;-84
2021/08/24 00:40:59;;;;;;;5.55;2.67;;;;;;;10.55;95.65;102689.81;4866303;29;20097;-85
2021/08/24 00:43:26;;;;;;;5.28;2.80;;;;;;;10.58;95.84;102694.88;4885721;29;20025;-84
2021/08/24 00:45:56;;;;;;;3.03;2.28;;;;;;;10.57;95.33;102695.06;4877037;29;20022;-85
2021/08/24 00:48:27;;;;;;;4.50;2.70;;;;;;;10.52;95.64;102692.81;4866710;29;20025;-83
2021/08/24 00:50:54;;;;;;;3.90;2.45;;;;;;;10.53;95.70;102693.66;4867401;29;20014;-85
2021/08/24 00:53:23;;;;;;;4.70;2.83;;;;;;;10.53;95.59;102693.66;4885684;29;20064;-83
2021/08/24 00:55:54;;;;;;;4.00;2.65;;;;;;;10.54;95.88;102698.03;4880156;29;20037;-85
2021/08/24 00:58:20;;;;;;;6.55;2.50;;;;;;;10.53;96.15;102699.91;4879119;29;20011;-84
2021/08/24 01:00:46;;;;;;;4.45;2.63;;;;;;;10.52;95.56;102700.03;4850260;29;20064;-84
2021/08/24 01:03:19;;;;;;;3.90;2.47;;;;;;;10.49;96.19;102703.88;4885542;29;20033;-84
2021/08/24 01:05:46;;;;;;;5.75;2.80;;;;;;;10.49;95.90;102703.88;4881755;29;20064;-84
2021/08/24 01:08:38;;;;;;;4.32;2.40;;;;;;;10.45;95.92;102709.72;4862021;29;20015;-83
2021/08/24 01:11:16;;;;;;;5.93;2.47;;;;;;;10.38;95.85;102695.19;4847707;29;20059;-85
2021/08/24 01:13:54;;;;;;;4.78;3.08;;;;;;;10.41;96.38;102705.66;4844572;29;20030;-83
2021/08/24 01:16:43;;;;;;;5.88;2.67;;;;;;;10.35;95.88;102705.25;4845473;29;20022;-83
2021/08/24 01:19:39;;;;;;;2.83;2.40;;;;;;;10.34;95.86;102718.84;4858129;29;20042;-82
2021/08/24 01:22:46;;;;;;;4.95;3.00;;;;;;;10.23;96.07;102702.88;4866807;29;20020;-82
2021/08/24 01:25:20;;;;;;;4.53;3.10;;;;;;;10.29;96.37;102705.00;4847342;29;20047;-83
2021/08/24 01:28:09;;;;;;;5.88;2.63;;;;;;;10.29;95.96;102713.91;4848658;29;20071;-84
2021/08/24 01:31:12;;;;;;;5.03;2.90;;;;;;;10.22;96.18;102717.31;4861960;29;20022;-84
2021/08/24 01:33:46;;;;;;;4.95;2.45;;;;;;;10.20;96.41;102711.25;4883736;29;20017;-83
2021/08/24 01:39:06;;;;;;;4.00;3.10;;;;;;;9.06;96.28;102549.34;5030843;23;20138;-85
2021/08/24 01:41:34;;;;;;;4.40;2.92;;;;;;;9.49;96.37;102631.19;4862717;29;20090;-84
2021/08/24 01:44:15;;;;;;;6.20;3.03;;;;;;;9.78;96.57;102680.31;4865015;29;20026;-84
2021/08/24 01:46:57;;;;;;;7.25;3.13;;;;;;;10.14;97.11;102734.22;4847351;29;20026;-84
2021/08/24 01:49:33;;;;;;;4.63;2.75;;;;;;;9.61;96.42;102667.66;4864457;29;20053;-83
2021/08/24 01:52:05;;;;;;;3.85;2.80;;;;;;;9.64;96.66;102665.50;4866001;29;20014;-84
2021/08/24 01:54:57;;;;;;;4.90;3.30;;;;;;;9.26;96.52;102610.06;4864922;29;20023;-83
2021/08/24 01:57:30;;;;;;;4.97;2.95;;;;;;;9.16;96.66;102585.06;4884683;29;20057;-84
2021/08/24 02:00:00;;;;;;;3.17;2.75;;;;;;;9.31;96.83;102623.06;4877086;29;20045;-84
2021/08/24 02:02:32;;;;;;;4.78;3.35;;;;;;;10.09;97.04;102725.75;4857239;29;20070;-84
2021/08/24 02:05:12;;;;;;;5.30;3.42;;;;;;;10.00;97.14;102714.06;4847643;29;20025;-84
2021/08/24 02:07:38;;;;;;;5.72;3.72;;;;;;;10.12;97.44;102723.59;4847302;29;20053;-84
2021/08/24 02:10:26;;;;;;;6.32;3.00;;;;;;;10.09;96.81;102725.75;4845389;29;20034;-84
2021/08/24 02:12:54;;;;;;;7.80;4.40;;;;;;;10.06;96.78;102717.97;4865805;29;20073;-84
2021/08/24 02:15:36;;;;;;;8.20;4.10;;;;;;;10.02;97.42;102722.78;4865872;29;20014;-84
2021/08/24 02:18:04;;;;;;;6.18;3.80;;;;;;;9.98;97.56;102705.28;4884436;29;20058;-84
2021/08/24 02:20:39;;;;;;;7.05;3.83;;;;;;;10.03;97.64;102723.63;4881693;29;20018;-84
2021/08/24 02:23:13;;;;;;;5.03;3.40;;;;;;;9.97;98.06;102710.81;4862554;29;20022;-84
2021/08/24 02:25:42;;;;;;;7.30;3.63;;;;;;;9.94;97.95;102711.09;4860206;29;20040;-84
2021/08/24 02:28:35;;;;;;;6.15;4.38;;;;;;;9.88;98.20;102699.94;4847211;29;20034;-85
2021/08/24 02:31:10;;;;;;;7.28;3.70;;;;;;;9.87;98.11;102700.94;4871848;29;20013;-83
2021/08/24 02:33:51;;;;;;;3.88;3.35;;;;;;;9.88;98.24;102707.16;4884269;29;20010;-83
2021/08/24 02:36:18;;;;;;;6.43;3.55;;;;;;;9.87;98.33;102700.09;4865877;29;20063;-83
2021/08/24 02:38:53;;;;;;;4.93;3.22;;;;;;;9.82;97.65;102705.91;4866128;29;20094;-84
2021/08/24 02:41:23;;;;;;;5.60;3.00;;;;;;;9.71;97.74;102706.09;4875747;29;20025;-84
2021/08/24 02:43:51;;;;;;;5.38;2.75;;;;;;;9.73;97.38;102705.94;4878765;29;20021;-83
2021/08/24 02:46:19;;;;;;;3.53;2.75;;;;;;;9.69;97.84;102713.44;4884448;29;20022;-83
2021/08/24 02:48:51;;;;;;;5.70;3.05;;;;;;;9.67;98.03;102701.13;4860758;29;20085;-84
2021/08/24 02:51:19;;;;;;;4.93;2.80;;;;;;;9.66;97.71;102705.66;4847295;29;20019;-84
2021/08/24 02:53:53;;;;;;;5.97;3.30;;;;;;;9.61;97.20;102695.38;4861659;29;20022;-85
2021/08/24 02:56:18;;;;;;;5.75;3.08;;;;;;;9.54;97.03;102680.00;4864866;29;20029;-82
2021/08/24 02:58:43;;;;;;;3.28;2.75;;;;;;;9.61;97.51;102697.22;4855790;29;20030;-83
2021/08/24 03:01:09;;;;;;;4.63;3.00;;;;;;;9.63;97.46;102698.78;4877290;29;20022;-84
2021/08/24 03:03:34;;;;;;;3.55;2.53;;;;;;;9.58;97.60;102698.34;4843529;29;20034;-83
2021/08/24 03:06:01;;;;;;;4.88;2.95;;;;;;;9.56;97.63;102688.72;4843792;29;20090;-83
2021/08/24 03:08:27;;;;;;;4.40;3.17;;;;;;;9.54;97.58;102688.06;4874835;29;20034;-84
2021/08/24 03:10:53;;;;;;;7.35;3.25;;;;;;;9.57;97.58;102690.41;4868852;29;20042;-84
2021/08/24 03:13:30;;;;;;;5.25;3.22;;;;;;;9.56;97.54;102696.78;4868182;29;20018;-84
2021/08/24 03:16:33;;;;;;;5.60;3.30;;;;;;;9.51;97.62;102694.56;4864613;29;20038;-84
2021/08/24 03:19:05;;;;;;;5.68;3.45;;;;;;;9.56;97.56;102694.09;4849680;29;20041;-83
2021/08/24 03:21:34;;;;;;;4.85;3.33;;;;;;;9.53;97.46;102691.72;4886274;29;20065;-83
2021/08/24 03:24:01;;;;;;;4.78;3.33;;;;;;;9.53;97.95;102683.66;4883162;29;20034;-84
2021/08/24 03:26:34;;;;;;;5.30;3.25;;;;;;;9.50;98.07;102684.78;4854245;29;20017;-84
2021/08/24 03:29:06;;;;;;;4.05;3.40;;;;;;;9.56;97.97;102694.09;4868403;29;20022;-83
2021/08/24 03:31:31;;;;;;;4.88;3.30;;;;;;;9.50;97.79;102694.69;4866916;29;20025;-84
2021/08/24 03:33:57;;;;;;;5.78;3.13;;;;;;;9.52;97.99;102700.78;4886868;29;20022;-84
2021/08/24 03:36:22;;;;;;;5.78;3.80;;;;;;;9.40;97.77;102681.28;4855887;29;20026;-83
2021/08/24 03:38:48;;;;;;;5.43;3.25;;;;;;;9.51;97.93;102699.09;4853196;29;20062;-83
2021/08/24 03:41:13;;;;;;;4.78;3.55;;;;;;;9.47;98.19;102695.84;4866347;29;20085;-84
2021/08/24 03:43:39;;;;;;;4.25;3.53;;;;;;;9.41;98.23;102691.91;4868200;29;20010;-84
2021/08/24 03:46:04;;;;;;;4.75;3.45;;;;;;;9.49;97.75;102706.44;4864221;29;20054;-83
2021/08/24 03:48:30;;;;;;;4.68;2.90;;;;;;;9.49;98.25;102707.28;4887256;29;20061;-83
2021/08/24 03:50:57;;;;;;;3.90;3.30;;;;;;;9.13;97.69;102645.28;4860528;29;20030;-84
2021/08/24 03:53:23;;;;;;;3.85;2.85;;;;;;;9.43;97.77;102704.31;4858109;29;20047;-84
2021/08/24 03:55:48;;;;;;;3.72;2.72;;;;;;;9.39;98.13;102698.41;4886820;29;20009;-84
2021/08/24 03:58:14;;;;;;;4.05;2.67;;;;;;;9.28;97.41;102691.34;4867626;29;20014;-83
2021/08/24 04:00:44;;;;;;;6.15;3.53;;;;;;;9.36;97.78;102704.91;4887207;29;20047;-83
2021/08/24 04:03:10;;;;;;;4.60;3.00;;;;;;;9.37;97.92;102714.69;4875627;29;20025;-83
2021/08/24 04:05:37;;;;;;;5.07;3.30;;;;;;;9.38;97.59;102723.56;4857977;29;20064;-83
2021/08/24 04:08:02;;;;;;;3.70;2.88;;;;;;;9.34;97.07;102714.13;4846645;29;20046;-83
2021/08/24 04:10:28;;;;;;;5.15;2.72;;;;;;;9.35;97.58;102716.66;4858896;29;20093;-84
2021/08/24 04:12:53;;;;;;;3.50;3.00;;;;;;;9.32;97.19;102710.72;4854787;29;20014;-83
2021/08/24 04:15:19;;;;;;;5.20;3.03;;;;;;;9.27;97.23;102700.41;4850369;29;20094;-83
2021/08/24 04:17:44;;;;;;;3.40;2.80;;;;;;;9.45;96.75;102739.97;5376895;24;20055;-85
2021/08/24 04:20:12;;;;;;;5.20;3.00;;;;;;;8.45;95.57;102547.91;5465086;23;20050;-82
2021/08/24 04:22:45;;;;;;;5.20;3.10;;;;;;;9.65;95.06;102702.16;4840385;29;20053;-82
2021/08/24 04:25:12;;;;;;;4.30;2.90;;;;;;;9.40;93.86;102625.72;4849426;29;20007;-85
2021/08/24 04:27:39;;;;;;;3.88;2.63;;;;;;;9.38;93.13;102627.69;4847732;29;20068;-83
2021/08/24 04:30:04;;;;;;;6.53;3.30;;;;;;;9.13;93.08;102558.50;4848539;29;20019;-84
2021/08/24 04:32:34;;;;;;;3.50;2.75;;;;;;;10.02;91.79;102627.81;4838996;29;20018;-83
2021/08/24 04:34:59;;;;;;;5.28;2.85;;;;;;;10.99;90.41;102713.25;4849300;29;20056;-84
2021/08/24 04:37:25;;;;;;;4.53;2.53;;;;;;;10.29;90.28;102627.81;4839787;29;20047;-84
2021/08/24 04:39:51;;;;;;;4.38;2.63;;;;;;;9.63;90.93;102560.81;4831092;29;20027;-83
2021/08/24 04:42:18;;;;;;;7.50;2.85;;;;;;;9.99;90.53;102582.41;5012061;23;20055;-81
2021/08/24 04:44:45;;;;;;;3.35;2.63;;;;;;;10.18;88.82;102549.16;4850834;29;20101;-83
2021/08/24 04:52:21;;;;;;;4.65;2.90;;;;;;;11.62;86.20;102674.47;4914919;24;20052;-84
2021/08/24 04:54:50;;;;;;;4.38;3.00;;;;;;;11.59;84.34;102605.56;4863541;29;20030;-85
2021/08/24 05:27:33;;;;;;;4.40;2.60;;;;;;;14.94;78.41;102661.72;5919334;23;20035;31
2021/08/24 06:47:46;;;;;;;3.80;2.50;;;;;;;16.29;82.69;102590.06;5908822;23;20025;31
2021/08/24 06:50:44;;;;;;;4.10;2.72;;;;;;;17.22;83.06;102749.53;5663494;23;20884;31
2021/08/24 07:03:30;;;;;;;2.83;2.15;;;;;;;16.84;82.77;102585.81;5318027;23;20062;-87
2021/08/24 07:05:56;;;;;;;3.47;2.13;;;;;;;16.85;82.16;102582.03;5380690;23;20116;-87
2021/08/24 07:08:21;;;;;;;5.38;2.08;;;;;;;17.48;82.42;102650.06;5775578;23;20089;-83
2021/08/24 07:13:23;;;;;;;5.43;2.20;;;;;;;17.58;80.92;102612.44;5326616;23;20050;-85
2021/08/24 07:15:49;;;;;;;4.68;1.75;;;;;;;17.96;79.86;102658.31;4831401;29;20083;-86
2021/08/24 07:18:14;;;;;;;3.97;1.90;;;;;;;17.41;78.80;102567.53;4830117;29;20027;-86
2021/08/24 07:20:40;;;;;;;3.33;1.67;;;;;;;17.88;78.16;102636.69;4836631;29;20035;-85
2021/08/24 07:23:06;;;;;;;2.17;1.75;;;;;;;17.71;77.61;102589.88;4839601;29;20544;-85
2021/08/24 07:25:37;;;;;;;3.67;1.88;;;;;;;17.90;77.29;102612.81;4832616;29;20078;-86
2021/08/24 07:28:08;;;;;;;3.60;1.92;;;;;;;17.67;76.36;102564.94;4830802;29;20046;-82
2021/08/24 07:30:37;;;;;;;2.78;1.98;;;;;;;18.90;75.57;102752.97;4841422;29;20027;-84
2021/08/24 07:33:02;;;;;;;4.60;2.05;;;;;;;18.28;76.09;102651.31;4830641;29;20027;-85
2021/08/24 07:35:29;;;;;;;3.17;2.00;;;;;;;18.14;75.83;102614.97;4830546;29;20026;-85
2021/08/24 07:37:55;;;;;;;5.63;1.90;;;;;;;17.96;74.58;102592.94;4826257;29;20039;-85
2021/08/24 07:40:23;;;;;;;2.22;1.83;;;;;;;18.37;74.67;102655.50;4837982;29;20031;-85
2021/08/24 07:42:50;;;;;;;4.20;2.17;;;;;;;18.56;73.30;102648.41;4831195;29;20043;-86
2021/08/24 07:47:51;;;;;;;3.60;2.00;;;;;;;18.61;72.27;102640.47;5063242;24;20058;-86
2021/08/24 07:50:19;;;;;;;2.63;1.60;;;;;;;18.65;71.82;102641.72;4850373;29;20053;-86
2021/08/24 07:52:45;;;;;;;6.97;1.92;;;;;;;18.25;71.21;102568.09;4849209;29;20015;-86
2021/08/24 07:55:12;;;;;;;4.40;2.00;;;;;;;18.82;70.94;102663.16;4848518;29;20049;-87
2021/08/24 07:57:37;;;;;;;3.22;1.98;;;;;;;18.61;71.43;102620.53;4850321;29;20030;-87
2021/08/24 08:00:06;;;;;;;5.65;2.20;;;;;;;19.03;71.36;102668.41;4850225;29;20025;-86
2021/08/24 08:02:32;;;;;;;3.55;1.73;;;;;;;18.91;71.71;102660.03;4864768;29;20013;-85
2021/08/24 08:04:58;;;;;;;3.80;1.85;;;;;;;19.08;71.67;102660.44;4849925;29;20018;-85
2021/08/24 08:09:58;;;;;;;3.42;2.05;;;;;;;19.14;71.25;102635.03;5239147;24;20042;-86
2021/08/24 08:12:24;;;;;;;7.35;2.20;;;;;;;18.93;71.06;102572.50;4850268;29;20049;-85
2021/08/24 08:14:51;;;;;;;3.97;2.13;;;;;;;19.37;70.98;102641.91;4847445;29;20038;-86
2021/08/24 08:17:16;;;;;;;3.53;1.92;;;;;;;19.43;71.44;102638.34;4849598;29;20026;-86
2021/08/24 08:27:28;;;;;;;4.38;2.33;;;;;;;18.89;68.61;102579.44;5065740;23;20065;-85
2021/08/24 08:29:53;;;;;;;4.05;2.38;;;;;;;18.91;68.18;102580.94;4845242;29;20113;-86
2021/08/24 08:37:30;;;;;;;7.18;2.80;;;;;;;20.31;68.70;102767.13;5792695;23;20065;-80
2021/08/24 09:26:47;;;;;;;6.93;2.10;;;;;;;20.84;66.05;102763.31;5719802;23;20046;-85
2021/08/24 09:57:58;;;;;;;3.72;2.05;;;;;;;20.00;62.87;102628.53;5273162;23;20059;-85
2021/08/24 10:18:44;;;;;;;4.95;2.00;;;;;;;19.59;64.85;102555.94;5290635;23;20062;-86
2021/08/24 10:21:27;;;;;;;7.25;2.17;;;;;;;20.09;65.15;102631.81;4857381;29;20026;-88
2021/08/24 16:21:59;;;;;;;13.63;3.22;;;;;;;19.16;82.22;102473.81;5764627;24;20025;31
2021/08/24 20:00:59;;;;;;;9.70;2.90;;;;;;;16.52;90.80;102128.78;5880077;24;20040;31
2021/08/24 21:08:07;;;;;;;10.23;3.07;;;;;;;15.34;87.12;101934.66;5907398;23;20024;31
2021/08/24 22:51:47;;;;;;;12.43;2.85;;;;;;;15.36;89.73;101949.66;5879543;24;21129;31
